Archival Weather

Al Kharj

Al Kharj, Saudi Arabia (OEKJ)

Report from: Thursday, February 22, 2024 12:00 AM UTC
Current time: Wednesday, April 24, 2024 7:32 PM UTC

Current weather – Weather history – Daily summaries
Weather forecast

Temperature15.0°C (59.0°F)
Dew point1.0°C (33.8°F)
Winds 9 kts (4.6 m/s, 10.4 mph) East-Southeast (120°)
Clouds Sky clear
Altimeter30.18 in.Hg (1022 mB)
Relative humidity39 %
Density altitude-194 ft. (-59 m)
Remarks Ceiling and visibility OK
Flight conditions Visual Meteorological Conditions
Raw dataOEKJ 220000Z 12009KT CAVOK 15/01 Q1022
An error has occurred. This application may no longer respond until reloaded. Reload 🗙